Time;durP1;ratioP1;P1;durP2;ratioP2;P2;SDS_P1;SDS_P2;PMS_P1;PMS_P2;Temp;Humidity;BMP_temperature;BMP_pressure;BME280_temperature;BME280_humidity;BME280_pressure;Samples;Min_cycle;Max_cycle;Signal;HPM_P1;HPM_P2
2021/07/08 00:01:58;;;;;;;7.92;2.22;;;;;;;19.68;100.00;101503.99;1679150;85;21094;-74
2021/07/08 00:04:24;;;;;;;6.72;2.30;;;;;;;19.66;100.00;101506.20;1660050;85;20957;-75
2021/07/08 00:06:50;;;;;;;6.92;2.33;;;;;;;19.64;100.00;101503.48;1679323;85;20979;-74
2021/07/08 00:09:17;;;;;;;7.87;2.50;;;;;;;19.62;100.00;101505.69;1679229;85;21027;-78
2021/07/08 00:11:43;;;;;;;6.40;2.37;;;;;;;19.60;100.00;101502.47;1679296;85;21021;-78
2021/07/08 00:14:09;;;;;;;5.65;2.12;;;;;;;19.59;100.00;101504.92;1679174;85;21130;-77
2021/07/08 00:16:37;;;;;;;6.65;2.10;;;;;;;19.56;100.00;101502.78;1679357;85;20881;-75
2021/07/08 00:19:06;;;;;;;3.85;2.10;;;;;;;19.52;100.00;101502.58;1640675;87;21027;-74
2021/07/08 00:21:32;;;;;;;4.42;1.98;;;;;;;19.50;100.00;101504.25;1640814;87;21514;-80
2021/07/08 00:23:59;;;;;;;7.33;2.12;;;;;;;19.46;100.00;101500.47;1640765;87;21058;-75
2021/07/08 00:26:25;;;;;;;8.88;2.12;;;;;;;19.42;100.00;101499.45;1640789;87;21095;-75
2021/07/08 00:28:51;;;;;;;5.60;1.90;;;;;;;19.39;100.00;101506.88;1643253;87;21547;-77
2021/07/08 00:31:18;;;;;;;6.28;2.35;;;;;;;19.33;100.00;101508.63;1645264;87;21122;-74
2021/07/08 00:33:46;;;;;;;5.87;2.25;;;;;;;19.27;100.00;101513.36;1644682;86;21146;-78
2021/07/08 00:36:17;;;;;;;6.00;1.77;;;;;;;19.23;100.00;101512.30;1644734;86;21079;-73
2021/07/08 00:38:45;;;;;;;5.00;2.45;;;;;;;19.22;100.00;101513.42;1644928;87;21238;-73
2021/07/08 00:41:11;;;;;;;7.25;2.52;;;;;;;19.18;100.00;101514.58;1645221;86;21119;-77
2021/07/08 00:43:37;;;;;;;3.65;1.95;;;;;;;19.16;100.00;101518.15;1659841;85;21514;-75
2021/07/08 00:46:05;;;;;;;8.05;2.20;;;;;;;19.15;100.00;101519.80;1674541;85;20989;-81
2021/07/08 00:48:33;;;;;;;8.35;2.10;;;;;;;19.10;100.00;101519.89;1674690;85;21669;-78
2021/07/08 00:50:59;;;;;;;4.62;2.00;;;;;;;19.06;100.00;101518.30;1683806;85;21080;-80
2021/07/08 00:53:25;;;;;;;7.58;2.27;;;;;;;19.03;100.00;101521.06;1683921;85;20916;-76
2021/07/08 00:55:58;;;;;;;13.65;2.42;;;;;;;19.00;100.00;101523.02;1683944;85;20897;-77
2021/07/08 00:58:25;;;;;;;;;;;;;;;18.97;100.00;101523.61;1686508;85;21449;-76
2021/07/08 01:00:51;;;;;;;7.90;1.98;;;;;;;18.92;100.00;101525.03;1683881;85;20146;-75
2021/07/08 01:03:17;;;;;;;7.22;2.35;;;;;;;18.91;100.00;101525.31;1684004;85;22415;-74
2021/07/08 01:05:48;;;;;;;5.17;2.40;;;;;;;18.87;100.00;101533.84;1683871;85;21036;-73
2021/07/08 01:08:15;;;;;;;4.42;1.98;;;;;;;18.84;100.00;101527.85;1684054;85;21555;-80
2021/07/08 01:10:44;;;;;;;6.28;2.17;;;;;;;18.83;100.00;101534.98;1683774;85;21072;-78
2021/07/08 01:13:19;;;;;;;12.23;2.87;;;;;;;18.80;100.00;101541.03;1683955;84;21028;-78
2021/07/08 01:15:47;;;;;;;5.90;2.17;;;;;;;18.75;100.00;101546.55;1677706;84;21110;-76
2021/07/08 01:18:14;;;;;;;8.80;2.75;;;;;;;18.71;100.00;101549.03;1664547;85;21115;-79
2021/07/08 01:20:40;;;;;;;5.87;2.15;;;;;;;18.65;100.00;101549.36;1684037;85;21068;-79
2021/07/08 01:23:06;;;;;;;9.75;2.40;;;;;;;18.59;100.00;101550.80;1684251;85;21551;-74
2021/07/08 01:25:36;;;;;;;4.53;2.27;;;;;;;18.55;100.00;101551.66;1684414;85;21127;-79
2021/07/08 01:28:06;;;;;;;5.42;2.20;;;;;;;18.51;100.00;101560.17;1685541;84;21570;-78
2021/07/08 01:30:33;;;;;;;9.35;2.35;;;;;;;18.47;100.00;101553.13;1688594;85;21472;-82
2021/07/08 01:33:00;;;;;;;6.12;2.37;;;;;;;18.44;100.00;101556.96;1688901;84;21076;-72
2021/07/08 01:35:27;;;;;;;5.50;2.27;;;;;;;18.43;100.00;101564.89;1688697;84;21137;-77
2021/07/08 01:37:53;;;;;;;6.45;2.67;;;;;;;18.40;100.00;101559.45;1689304;85;21099;-72
2021/07/08 01:40:20;;;;;;;6.08;2.37;;;;;;;18.37;100.00;101571.77;1689011;84;21224;-76
2021/07/08 01:42:47;;;;;;;9.45;2.08;;;;;;;18.34;100.00;101564.70;1688954;84;20996;-79
2021/07/08 01:45:16;;;;;;;14.40;2.62;;;;;;;18.33;100.00;101567.19;1689185;84;20980;-75
2021/07/08 01:47:44;;;;;;;5.17;2.17;;;;;;;18.32;100.00;101570.47;1684025;85;21527;-78
2021/07/08 01:50:16;;;;;;;6.10;2.10;;;;;;;18.32;100.00;101569.63;1684807;84;22355;-78
2021/07/08 01:52:43;;;;;;;6.03;1.97;;;;;;;18.32;100.00;101569.63;1686101;84;21147;-76
2021/07/08 01:55:11;;;;;;;7.12;2.12;;;;;;;18.33;100.00;101577.55;1689114;84;21528;-75
2021/07/08 01:57:42;;;;;;;2.85;1.92;;;;;;;18.33;100.00;101577.55;1689205;84;21135;-77
2021/07/08 02:00:13;;;;;;;5.70;2.02;;;;;;;18.35;100.00;101579.97;1669476;85;21012;-78
2021/07/08 02:02:42;;;;;;;13.68;2.22;;;;;;;18.35;100.00;101576.72;1689043;85;21028;-76
2021/07/08 02:05:10;;;;;;;5.83;2.05;;;;;;;18.28;100.00;101550.86;1689287;84;21254;-73
2021/07/08 02:07:37;;;;;;;7.08;2.22;;;;;;;18.39;100.00;101572.85;1689429;85;21075;-74
2021/07/08 02:10:12;;;;;;;6.12;2.10;;;;;;;18.41;100.00;101569.27;1688823;84;21386;-73
2021/07/08 02:12:40;;;;;;;4.65;2.05;;;;;;;18.43;100.00;101570.36;1689006;84;21086;-78
2021/07/08 02:15:08;;;;;;;4.42;1.70;;;;;;;18.50;100.00;101579.00;1688664;84;21005;-77
2021/07/08 02:17:36;;;;;;;5.03;2.12;;;;;;;18.59;100.00;101581.39;1688780;84;21663;-75
2021/07/08 02:20:05;;;;;;;7.80;2.08;;;;;;;18.65;100.00;101580.75;1688621;84;21031;-78
2021/07/08 02:22:32;;;;;;;4.58;2.27;;;;;;;18.65;100.00;101580.75;1688926;84;21019;-80
2021/07/08 02:25:00;;;;;;;7.55;2.22;;;;;;;18.70;100.00;101583.44;1688559;84;21489;-75
2021/07/08 02:27:26;;;;;;;3.70;1.92;;;;;;;18.77;100.00;101585.31;1689323;85;21075;-75
2021/07/08 02:29:52;;;;;;;9.48;2.67;;;;;;;18.83;100.00;101591.79;1679707;84;21274;-81
2021/07/08 02:32:18;;;;;;;6.25;2.02;;;;;;;18.90;100.00;101594.72;1660440;85;20901;-75
2021/07/08 02:34:49;;;;;;;6.40;1.80;;;;;;;18.96;100.00;101599.82;1679784;85;20937;-74
2021/07/08 02:37:16;;;;;;;8.03;2.20;;;;;;;19.03;100.00;101603.56;1679582;85;21527;-76
2021/07/08 02:39:42;;;;;;;5.62;2.15;;;;;;;19.09;100.00;101600.22;1679766;84;21078;-82
2021/07/08 02:42:13;;;;;;;5.17;1.90;;;;;;;19.17;100.00;101595.47;1660077;85;21674;-73
2021/07/08 02:44:39;;;;;;;6.08;1.80;;;;;;;19.26;100.00;101599.98;1504044;94;21058;-78
2021/07/08 02:47:05;;;;;;;5.35;1.87;;;;;;;19.36;100.00;101600.42;1501114;94;20994;-76
2021/07/08 02:49:31;;;;;;;5.30;1.60;;;;;;;19.44;100.00;101597.03;1495791;95;21530;-75
2021/07/08 02:51:57;;;;;;;8.05;1.82;;;;;;;19.59;100.00;101598.73;1475557;95;21054;-74
2021/07/08 02:54:23;;;;;;;4.55;1.75;;;;;;;19.80;100.00;101599.27;1495953;95;21653;-79
2021/07/08 02:56:49;;;;;;;8.68;2.00;;;;;;;20.04;100.00;101601.08;1495821;95;21138;-75
2021/07/08 02:59:16;;;;;;;3.42;1.62;;;;;;;20.31;100.00;101601.70;1495920;95;21199;-77
2021/07/08 03:01:41;;;;;;;4.33;1.75;;;;;;;20.51;100.00;101600.53;1495805;95;21185;-81
2021/07/08 03:04:07;;;;;;;4.78;2.12;;;;;;;20.58;100.00;101601.77;1495758;95;21804;-74
2021/07/08 03:06:34;;;;;;;6.55;2.20;;;;;;;20.62;100.00;101606.11;1495833;95;21154;-76
2021/07/08 03:09:02;;;;;;;11.93;1.98;;;;;;;20.64;100.00;101602.49;1476510;95;21074;-77
2021/07/08 03:11:28;;;;;;;7.45;2.10;;;;;;;20.59;100.00;101605.34;1495641;95;21126;-80
2021/07/08 03:16:22;;;;;;;6.45;2.42;;;;;;;20.66;100.00;101606.31;1525355;92;21095;-82
2021/07/08 03:18:48;;;;;;;5.08;1.75;;;;;;;20.73;100.00;101602.60;1531254;93;21176;-77
2021/07/08 03:21:14;;;;;;;8.33;2.15;;;;;;;20.94;100.00;101598.36;1530968;93;21084;-79
2021/07/08 03:23:40;;;;;;;7.00;2.10;;;;;;;21.29;100.00;101604.19;1530833;93;21037;-81
2021/07/08 03:26:06;;;;;;;3.95;1.82;;;;;;;21.68;100.00;101605.00;1530991;93;21136;-80
2021/07/08 03:28:33;;;;;;;4.15;1.50;;;;;;;22.17;100.00;101607.95;1540478;91;21152;-76
2021/07/08 03:30:58;;;;;;;4.92;2.05;;;;;;;22.50;100.00;101611.77;1561967;91;21110;-79
2021/07/08 03:33:24;;;;;;;5.97;2.00;;;;;;;22.84;100.00;101610.55;1562057;91;21033;-76
2021/07/08 03:35:50;;;;;;;3.72;1.98;;;;;;;23.35;100.00;101608.27;1541033;92;21067;-76
2021/07/08 03:38:16;;;;;;;6.22;1.67;;;;;;;23.79;100.00;101611.31;1562283;91;21013;-78
2021/07/08 03:40:43;;;;;;;4.60;1.60;;;;;;;24.20;100.00;101611.34;1547353;87;49861;-75
2021/07/08 03:43:09;;;;;;;6.72;1.60;;;;;;;24.57;100.00;101615.90;1639787;87;21098;-77
2021/07/08 03:45:36;;;;;;;5.00;1.65;;;;;;;24.77;100.00;101620.45;1606506;89;21640;-82
2021/07/08 03:48:02;;;;;;;7.35;1.40;;;;;;;25.16;100.00;101617.91;1579428;90;21492;-81
2021/07/08 03:50:28;;;;;;;4.08;2.30;;;;;;;25.57;100.00;101624.03;1639570;87;21030;-76
2021/07/08 03:52:56;;;;;;;7.85;1.80;;;;;;;25.91;100.00;101620.77;1585173;89;21545;-75
2021/07/08 03:55:22;;;;;;;8.78;2.00;;;;;;;26.11;100.00;101624.64;1605758;89;21653;-81
2021/07/08 03:57:55;;;;;;;6.67;1.60;;;;;;;26.21;99.29;101630.33;1638707;87;21122;-81
2021/07/08 04:00:32;;;;;;;4.05;1.80;;;;;;;26.40;100.00;101627.03;1605879;89;21051;-78
2021/07/08 04:03:02;;;;;;;4.12;1.57;;;;;;;26.57;91.87;101631.59;1583392;90;21681;-81
2021/07/08 04:05:29;;;;;;;10.93;1.90;;;;;;;26.59;91.09;101632.86;1599403;89;21058;-80
2021/07/08 04:07:55;;;;;;;5.75;1.70;;;;;;;26.87;91.12;101634.95;1579028;90;21319;-77
2021/07/08 04:10:24;;;;;;;5.12;2.00;;;;;;;26.95;83.64;101632.06;1596587;87;20974;-83
2021/07/08 04:12:49;;;;;;;5.97;1.90;;;;;;;26.96;83.58;101636.44;1622254;86;21043;-82
2021/07/08 04:15:16;;;;;;;5.70;1.87;;;;;;;27.25;84.49;101643.50;1660010;86;21511;-76
2021/07/08 04:17:45;;;;;;;9.88;1.82;;;;;;;27.52;79.40;101643.32;1687786;83;21558;-79
2021/07/08 04:22:48;;;;;;;4.83;1.90;;;;;;;27.90;80.07;101637.92;1642763;85;21141;-83
2021/07/08 04:25:14;;;;;;;4.05;2.00;;;;;;;28.08;74.88;101637.84;1643892;85;21189;-76
2021/07/08 04:27:42;;;;;;;3.45;2.05;;;;;;;28.44;73.03;101645.19;1667305;85;21052;-78
2021/07/08 04:30:13;;;;;;;7.83;1.72;;;;;;;28.59;72.54;101639.98;1664876;85;21090;-78
2021/07/08 04:32:40;;;;;;;5.75;1.85;;;;;;;28.84;70.82;101641.42;1660421;86;21353;-79
2021/07/08 04:37:41;;;;;;;2.70;1.92;;;;;;;29.01;68.06;101651.94;1599085;89;21116;-78
2021/07/08 04:40:16;;;;;;;5.40;2.10;;;;;;;29.56;69.06;101650.02;1599268;89;21151;-77
2021/07/08 04:42:42;;;;;;;9.00;1.90;;;;;;;29.90;64.55;101658.70;1599514;89;21174;-78
2021/07/08 04:45:10;;;;;;;6.12;2.10;;;;;;;29.90;61.65;101655.34;1599479;89;21163;-76
2021/07/08 04:47:38;;;;;;;6.75;2.33;;;;;;;29.97;61.53;101661.61;1599084;89;20959;-82
2021/07/08 04:50:07;;;;;;;3.58;2.27;;;;;;;29.96;60.85;101666.38;1599563;89;21119;-79
2021/07/08 04:52:33;;;;;;;7.45;1.82;;;;;;;30.17;58.05;101659.03;1599567;89;21511;-77
2021/07/08 04:54:59;;;;;;;5.42;2.08;;;;;;;30.04;53.45;101665.94;1599486;89;21052;-76
2021/07/08 04:57:25;;;;;;;3.22;2.15;;;;;;;29.64;52.34;101660.16;1599756;89;21699;-77
2021/07/08 04:59:54;;;;;;;5.00;2.10;;;;;;;29.58;53.65;101664.36;1598800;89;22930;-79
2021/07/08 05:02:20;;;;;;;7.83;2.25;;;;;;;29.92;52.67;101674.44;1599996;89;21082;-81
2021/07/08 05:04:46;;;;;;;6.37;2.02;;;;;;;29.84;51.86;101677.64;1579928;89;21070;-79
2021/07/08 05:07:13;;;;;;;3.90;2.20;;;;;;;29.96;52.30;101677.49;1564558;89;21028;-81
2021/07/08 05:09:40;;;;;;;6.75;2.25;;;;;;;30.13;51.36;101683.79;1575649;89;21099;-77
2021/07/08 05:12:07;;;;;;;6.30;1.90;;;;;;;30.25;52.90;101677.50;1584362;89;21074;-81
2021/07/08 05:14:34;;;;;;;5.17;2.17;;;;;;;30.58;50.58;101684.45;1570642;91;21161;-79
2021/07/08 05:17:01;;;;;;;6.58;3.00;;;;;;;30.54;50.38;101691.35;1571054;91;21145;-79
2021/07/08 05:19:29;;;;;;;9.35;2.40;;;;;;;30.55;49.98;101681.02;1558987;91;21076;-79
2021/07/08 05:21:56;;;;;;;5.35;2.30;;;;;;;30.90;50.37;101687.02;1536328;93;21196;-77
2021/07/08 05:26:52;;;;;;;5.83;2.37;;;;;;;31.47;47.18;101689.89;1480659;96;21050;-84
2021/07/08 05:29:19;;;;;;;5.55;2.10;;;;;;;31.49;46.63;101691.13;1483653;96;21949;-79
2021/07/08 05:31:49;;;;;;;6.50;2.50;;;;;;;31.65;47.95;101695.94;1453509;98;21567;-84
2021/07/08 05:34:16;;;;;;;9.68;2.40;;;;;;;31.92;47.21;101695.91;1469184;95;21306;-78
2021/07/08 05:36:42;;;;;;;6.87;2.12;;;;;;;31.77;45.96;101692.11;1497189;94;21027;-81
2021/07/08 05:39:08;;;;;;;3.37;1.87;;;;;;;31.74;46.02;101695.66;1495902;94;21105;-79
2021/07/08 05:41:34;;;;;;;5.80;2.20;;;;;;;32.13;45.31;101691.17;1515687;94;21131;-78
2021/07/08 05:44:00;;;;;;;3.52;2.40;;;;;;;32.06;44.32;101689.67;1522255;93;21068;-77
2021/07/08 05:46:26;;;;;;;3.10;1.92;;;;;;;32.57;44.79;101698.83;1522148;93;21067;-78
2021/07/08 05:48:54;;;;;;;8.38;2.20;;;;;;;32.60;43.33;101684.70;1522029;93;21182;-78
2021/07/08 05:51:23;;;;;;;3.27;2.42;;;;;;;32.82;43.16;101689.27;1521998;93;21098;-78
2021/07/08 05:53:50;;;;;;;8.28;2.40;;;;;;;32.70;42.93;101692.35;1521724;93;21179;-83
2021/07/08 05:56:16;;;;;;;8.23;2.52;;;;;;;32.68;42.13;101694.16;1524378;91;21096;-78
2021/07/08 05:58:42;;;;;;;4.00;2.20;;;;;;;33.09;41.89;101696.08;1570241;88;21066;-80
2021/07/08 06:01:08;;;;;;;3.98;2.20;;;;;;;33.05;41.36;101695.27;1593282;88;21676;-84
2021/07/08 06:03:34;;;;;;;7.10;2.35;;;;;;;33.12;41.89;101690.54;1593825;89;21010;-81
2021/07/08 06:06:00;;;;;;;3.50;2.22;;;;;;;33.79;42.32;101687.13;1593741;90;21053;-83
2021/07/08 06:08:26;;;;;;;5.25;2.37;;;;;;;33.75;40.59;101694.11;1593711;89;20975;-77
2021/07/08 06:10:52;;;;;;;7.53;2.50;;;;;;;34.26;41.45;101686.09;1594072;90;21133;-84
2021/07/08 06:13:18;;;;;;;10.90;2.52;;;;;;;34.70;40.29;101688.38;1593608;89;21022;-78
2021/07/08 06:15:46;;;;;;;6.15;2.40;;;;;;;34.74;39.01;101687.20;1593727;89;21058;-80
2021/07/08 06:18:12;;;;;;;8.85;2.45;;;;;;;34.53;40.18;101685.73;1573005;90;21050;-80
2021/07/08 06:20:38;;;;;;;5.87;2.58;;;;;;;35.03;39.88;101682.38;1593575;89;20947;-83
2021/07/08 06:23:04;;;;;;;9.60;2.55;;;;;;;35.48;38.96;101687.52;1571884;88;21138;-80
2021/07/08 06:25:31;;;;;;;3.75;2.72;;;;;;;35.35;38.08;101686.34;1581018;88;21042;-82
2021/07/08 06:27:58;;;;;;;4.53;2.50;;;;;;;35.40;37.53;101686.72;1568503;90;21118;-76
2021/07/08 06:30:24;;;;;;;4.45;2.10;;;;;;;35.31;37.20;101684.16;1616515;86;21500;-82
2021/07/08 06:32:50;;;;;;;3.80;2.90;;;;;;;35.58;38.72;101688.09;1653249;86;20914;-81
2021/07/08 06:35:19;;;;;;;4.53;2.58;;;;;;;35.75;35.60;101689.84;1665722;83;21614;-82
2021/07/08 06:37:46;;;;;;;8.45;2.60;;;;;;;35.13;37.11;101692.00;1666925;85;20992;-77
2021/07/08 06:40:16;;;;;;;3.95;2.30;;;;;;;35.06;37.04;101687.78;1686488;85;21067;-80
2021/07/08 06:42:45;;;;;;;4.17;2.27;;;;;;;35.10;38.11;101687.80;1686711;85;21064;-79
2021/07/08 06:45:13;;;;;;;4.72;2.58;;;;;;;35.84;37.01;101688.19;1658260;85;21553;-76
2021/07/08 06:47:43;;;;;;;4.72;2.70;;;;;;;35.47;36.40;101692.91;1653065;86;21068;-78
2021/07/08 06:50:09;;;;;;;3.12;2.60;;;;;;;35.03;37.27;101696.97;1668815;83;21040;-74
2021/07/08 06:52:36;;;;;;;4.42;2.40;;;;;;;35.11;36.65;101694.39;1686865;85;21051;-75
2021/07/08 06:55:04;;;;;;;4.67;2.42;;;;;;;35.51;37.45;101694.31;1654166;85;21037;-76
2021/07/08 06:57:30;;;;;;;4.12;2.62;;;;;;;35.71;36.02;101696.27;1653176;86;21052;-74
2021/07/08 06:59:56;;;;;;;8.80;2.80;;;;;;;35.85;36.72;101690.39;1656359;86;23039;-74
2021/07/08 07:02:22;;;;;;;4.53;2.47;;;;;;;35.68;35.12;101692.05;1653154;85;20940;-78
2021/07/08 07:04:49;;;;;;;4.20;2.72;;;;;;;35.34;35.84;101693.16;1665295;84;20917;-77
2021/07/08 07:07:15;;;;;;;7.25;2.72;;;;;;;35.26;37.17;101694.55;1679613;83;21042;-77
2021/07/08 07:09:42;;;;;;;9.00;2.20;;;;;;;35.63;36.08;101702.31;1677015;83;21118;-79
2021/07/08 07:12:09;;;;;;;11.15;2.30;;;;;;;35.69;36.90;101700.08;1676778;83;21774;-79
2021/07/08 07:14:35;;;;;;;3.92;2.20;;;;;;;36.14;35.65;101699.48;1665247;84;21491;-78
2021/07/08 07:17:01;;;;;;;6.58;2.30;;;;;;;36.23;35.50;101706.05;1671675;85;21059;-75
2021/07/08 07:19:27;;;;;;;10.55;2.75;;;;;;;36.65;35.01;101703.60;1686538;85;21119;-76
2021/07/08 07:22:00;;;;;;;5.53;2.42;;;;;;;36.50;33.98;101709.88;1687035;84;21179;-80
2021/07/08 07:24:25;;;;;;;8.68;2.45;;;;;;;36.60;35.23;101703.42;1563305;91;21078;-73
2021/07/08 07:26:50;;;;;;;8.03;2.65;;;;;;;36.92;34.07;101702.97;1545643;92;20935;-73
2021/07/08 07:29:16;;;;;;;7.67;2.60;;;;;;;37.21;33.41;101707.72;1544141;92;21019;-80
2021/07/08 07:31:42;;;;;;;4.65;2.40;;;;;;;36.76;33.16;101703.49;1539302;92;20939;-78
2021/07/08 07:34:09;;;;;;;7.05;2.35;;;;;;;37.18;34.20;101707.14;1541182;92;20931;-75
2021/07/08 07:36:35;;;;;;;6.70;2.37;;;;;;;37.88;33.87;101706.15;1540859;92;21989;-74
2021/07/08 07:39:02;;;;;;;6.62;2.55;;;;;;;37.90;32.90;101701.52;1541089;93;20923;-78
2021/07/08 07:41:28;;;;;;;5.85;2.45;;;;;;;38.17;33.16;101701.57;1540959;92;21062;-72
2021/07/08 07:43:54;;;;;;;4.83;2.20;;;;;;;38.72;32.33;101711.61;1521599;92;21007;-74
2021/07/08 07:46:20;;;;;;;6.20;2.70;;;;;;;39.46;31.94;101705.08;1551295;90;20932;-72
2021/07/08 07:48:45;;;;;;;3.55;2.55;;;;;;;40.07;31.86;101709.47;1554395;91;20975;-74
2021/07/08 07:51:16;;;;;;;8.48;2.58;;;;;;;40.56;29.62;101712.35;1545393;92;21063;-80
2021/07/08 07:53:42;;;;;;;5.30;2.57;;;;;;;39.48;29.85;101711.09;1561580;89;21193;-80
2021/07/08 07:56:08;;;;;;;4.95;2.45;;;;;;;39.08;30.92;101701.93;1566707;89;21066;-74
2021/07/08 07:58:34;;;;;;;5.97;2.80;;;;;;;39.50;30.19;101710.02;1570507;91;20928;-72
2021/07/08 08:01:00;;;;;;;10.00;2.65;;;;;;;39.07;30.99;101708.80;1570307;91;21180;-80
2021/07/08 08:03:26;;;;;;;7.60;2.70;;;;;;;39.45;30.83;101709.14;1570164;91;21088;-74
2021/07/08 08:08:37;;;;;;;4.85;2.33;;;;;;;38.74;30.36;101701.30;1570097;91;21120;-75
2021/07/08 08:11:03;;;;;;;7.58;2.50;;;;;;;39.16;29.71;101708.25;1549706;91;21055;-76
2021/07/08 08:13:31;;;;;;;8.03;2.30;;;;;;;39.01;29.75;101711.16;1570018;90;21215;-77
2021/07/08 08:15:57;;;;;;;7.90;2.67;;;;;;;39.18;30.04;101706.39;1569921;91;21108;-77
2021/07/08 08:18:25;;;;;;;8.73;2.65;;;;;;;38.96;28.56;101709.61;1570360;91;21124;-79
2021/07/08 08:20:52;;;;;;;15.18;2.60;;;;;;;38.77;31.09;101708.90;1589641;87;21138;-72
2021/07/08 08:23:19;;;;;;;22.73;2.47;;;;;;;38.99;29.27;101707.95;1634420;86;21091;-75
2021/07/08 08:25:45;;;;;;;5.37;2.37;;;;;;;38.65;29.43;101706.08;1661400;86;21155;-75
2021/07/08 08:28:11;;;;;;;5.95;2.40;;;;;;;38.44;29.19;101709.25;1661232;86;21047;-73
2021/07/08 08:30:38;;;;;;;8.33;2.27;;;;;;;38.10;29.10;101701.69;1655337;85;20977;-79
2021/07/08 08:33:05;;;;;;;3.58;2.00;;;;;;;38.20;29.52;101702.74;1652273;86;21076;-77
2021/07/08 08:35:31;;;;;;;5.42;2.10;;;;;;;38.04;29.16;101699.16;1652206;86;21028;-78
2021/07/08 08:37:57;;;;;;;7.67;2.17;;;;;;;38.21;30.01;101698.11;1652078;86;21562;-74
2021/07/08 08:40:24;;;;;;;7.47;2.10;;;;;;;38.60;29.56;101684.84;1655663;86;20881;-73
2021/07/08 08:42:50;;;;;;;6.20;2.12;;;;;;;38.41;29.02;101698.22;1652321;86;21063;-76
2021/07/08 08:45:20;;;;;;;4.55;1.92;;;;;;;38.30;28.97;101701.19;1652219;86;21533;-73
2021/07/08 08:48:06;;;;;;;3.70;2.12;;;;;;;38.06;29.30;101695.29;1652420;86;21095;-78
2021/07/08 08:50:39;;;;;;;6.95;2.25;;;;;;;37.96;28.90;101690.00;1624088;88;21265;-73
2021/07/08 08:53:06;;;;;;;7.42;2.40;;;;;;;38.17;29.14;101693.12;1625832;88;21108;-74
2021/07/08 08:55:37;;;;;;;2.25;1.75;;;;;;;38.28;28.14;101696.58;1626024;88;21094;-78
2021/07/08 08:58:07;;;;;;;7.40;1.90;;;;;;;38.03;28.45;101699.75;1625741;88;21039;-81
2021/07/08 09:00:52;;;;;;;7.03;1.67;;;;;;;37.76;27.09;101702.50;1589032;89;21065;-79
2021/07/08 09:03:27;;;;;;;6.62;2.00;;;;;;;37.63;27.63;101698.66;1587551;89;21165;-78
2021/07/08 09:06:07;;;;;;;7.62;1.90;;;;;;;37.85;27.66;101699.17;1585301;89;21124;-77
2021/07/08 09:08:36;;;;;;;2.40;1.57;;;;;;;37.85;26.24;101694.95;1587191;89;21057;-85
2021/07/08 09:11:08;;;;;;;2.30;1.50;;;;;;;37.69;27.50;101690.73;1587732;90;21529;-81
2021/07/08 09:13:47;;;;;;;2.22;1.50;;;;;;;37.72;26.33;101691.91;1587409;89;21073;-76
2021/07/08 09:16:23;;;;;;;2.67;1.52;;;;;;;38.01;26.59;101696.58;1587655;89;21826;-84
2021/07/08 09:19:00;;;;;;;3.95;1.90;;;;;;;37.64;25.29;101699.62;1587523;90;21043;-78
2021/07/08 09:21:28;;;;;;;7.62;1.60;;;;;;;36.99;26.02;101700.88;1587544;90;21089;-77
2021/07/08 09:24:12;;;;;;;5.03;1.40;;;;;;;36.73;27.19;101706.52;1587756;90;21050;-79
2021/07/08 09:26:43;;;;;;;5.33;1.37;;;;;;;36.43;27.32;101709.14;1588240;89;21133;-75
2021/07/08 09:29:17;;;;;;;4.55;1.60;;;;;;;36.23;28.00;101710.27;1556942;90;21136;-77
2021/07/08 09:31:50;;;;;;;6.90;2.27;;;;;;;36.42;27.80;101706.95;1480072;95;21621;-79
2021/07/08 09:34:23;;;;;;;8.50;1.77;;;;;;;36.38;28.57;101707.55;1477388;97;21207;-76
2021/07/08 09:37:09;;;;;;;4.22;1.70;;;;;;;36.25;27.42;101713.47;1439139;99;21663;-78
2021/07/08 09:39:52;;;;;;;2.87;1.60;;;;;;;35.85;29.13;101707.22;1439583;99;21048;-76
2021/07/08 09:42:44;;;;;;;3.08;1.50;;;;;;;35.88;28.66;101705.80;1439282;99;22389;-79
2021/07/08 09:45:14;;;;;;;3.98;1.67;;;;;;;35.77;28.44;101707.05;1439367;99;21092;-77
2021/07/08 09:47:41;;;;;;;4.53;1.55;;;;;;;35.74;28.69;101710.09;1439648;98;21186;-83
2021/07/08 09:50:09;;;;;;;6.78;1.80;;;;;;;35.41;28.14;101714.95;1422361;99;21563;-77
2021/07/08 09:52:35;;;;;;;8.15;1.70;;;;;;;35.01;29.76;101709.99;1439908;99;21092;-75
2021/07/08 09:55:17;;;;;;;2.98;1.55;;;;;;;34.86;30.23;101714.58;1422623;99;21191;-79
2021/07/08 09:57:48;;;;;;;5.10;1.42;;;;;;;34.67;29.71;101706.78;1441239;99;21103;-80
2021/07/08 10:00:25;;;;;;;5.70;1.70;;;;;;;34.63;29.64;101711.59;1442038;99;21112;-80
2021/07/08 10:02:53;;;;;;;7.20;1.98;;;;;;;34.56;29.37;101706.80;1441899;99;21747;-74
2021/07/08 10:05:22;;;;;;;5.72;1.60;;;;;;;34.66;30.53;101706.59;1440537;99;21249;-76
2021/07/08 10:07:48;;;;;;;3.27;1.35;;;;;;;34.30;29.80;101701.52;1440651;99;21144;-79
2021/07/08 10:10:16;;;;;;;5.22;1.52;;;;;;;34.17;31.88;101703.88;1466898;96;21197;-75
2021/07/08 10:12:48;;;;;;;2.75;1.67;;;;;;;34.33;31.93;101696.53;1469968;96;21098;-73
2021/07/08 10:15:15;;;;;;;;;;;;;;;34.32;30.70;101698.50;1472056;96;20981;-74
2021/07/08 10:17:42;;;;;;;7.85;1.50;;;;;;;34.02;30.30;101693.20;1469798;96;20175;-74
2021/07/08 10:20:12;;;;;;;4.08;1.50;;;;;;;33.65;30.60;101688.68;1469976;96;21940;-75
2021/07/08 10:22:39;;;;;;;4.47;1.50;;;;;;;33.61;32.98;101689.84;1470332;96;21139;-76
2021/07/08 10:25:08;;;;;;;5.65;1.70;;;;;;;33.65;31.40;101685.06;1446461;95;21125;-76
2021/07/08 10:27:37;;;;;;;5.17;1.60;;;;;;;33.87;32.31;101697.16;1493141;93;21224;-78
2021/07/08 10:30:06;;;;;;;9.10;1.87;;;;;;;33.58;32.26;101684.44;1533872;90;21077;-82
2021/07/08 10:32:33;;;;;;;5.83;1.32;;;;;;;33.45;31.84;101685.35;1581747;86;21355;-76
2021/07/08 10:34:59;;;;;;;1.72;1.50;;;;;;;33.45;31.83;101683.16;1656278;86;21076;-74
2021/07/08 10:37:35;;;;;;;3.17;1.40;;;;;;;33.57;31.13;101673.06;1652773;86;22203;-79
2021/07/08 10:40:04;;;;;;;4.45;1.60;;;;;;;33.67;32.31;101677.88;1656850;86;21091;-81
2021/07/08 10:42:48;;;;;;;5.17;1.60;;;;;;;33.74;32.06;101681.91;1659089;86;21547;-82
2021/07/08 10:45:28;;;;;;;2.55;1.40;;;;;;;33.72;32.33;101686.51;1658606;86;21119;-74
2021/07/08 10:48:19;;;;;;;4.03;1.60;;;;;;;33.68;31.01;101684.30;1658899;86;21424;-73
2021/07/08 10:50:48;;;;;;;1.82;1.35;;;;;;;33.81;34.79;101683.34;1658584;86;21523;-76
2021/07/08 10:53:27;;;;;;;4.05;1.40;;;;;;;34.29;32.42;101678.31;1658935;86;21063;-78
2021/07/08 10:56:02;;;;;;;2.22;1.50;;;;;;;34.05;32.01;101677.06;1655611;86;21142;-78
2021/07/08 10:58:52;;;;;;;6.25;1.50;;;;;;;33.98;32.08;101669.23;1659058;86;21098;-80
2021/07/08 11:01:27;;;;;;;5.53;1.67;;;;;;;34.27;32.37;101670.10;1658921;86;21064;-80
2021/07/08 11:04:02;;;;;;;3.30;1.70;;;;;;;33.92;31.78;101668.20;1658770;86;21507;-80
2021/07/08 11:06:41;;;;;;;9.85;1.50;;;;;;;34.00;32.31;101671.02;1658846;86;21031;-79
2021/07/08 11:09:18;;;;;;;3.02;1.27;;;;;;;34.09;32.63;101670.89;1662425;85;21019;-78
2021/07/08 11:11:53;;;;;;;3.87;1.12;;;;;;;34.28;31.49;101676.72;1658376;86;21127;-74
2021/07/08 11:14:26;;;;;;;9.68;1.52;;;;;;;34.77;32.30;101666.79;1658878;86;21003;-82
2021/07/08 11:17:03;;;;;;;3.20;1.50;;;;;;;34.90;30.54;101669.17;1658769;86;21035;-75
2021/07/08 11:19:34;;;;;;;5.03;1.22;;;;;;;34.73;31.33;101662.38;1659257;85;21032;-81
2021/07/08 11:22:13;;;;;;;9.73;1.70;;;;;;;34.86;29.91;101664.98;1659088;86;21551;-76
2021/07/08 11:24:53;;;;;;;6.45;1.55;;;;;;;34.78;30.43;101656.38;1658843;86;21559;-75
2021/07/08 11:27:30;;;;;;;2.33;1.40;;;;;;;34.37;30.24;101661.73;1658577;86;21460;-73
2021/07/08 11:30:01;;;;;;;7.45;1.30;;;;;;;33.91;30.17;101661.02;1658878;86;21011;-76
2021/07/08 11:32:50;;;;;;;7.20;1.75;;;;;;;33.64;30.62;101651.31;1640496;86;21103;-75
2021/07/08 11:37:56;;;;;;;3.83;1.32;;;;;;;33.76;31.66;101662.75;1582982;89;21608;-76
2021/07/08 11:40:24;;;;;;;3.22;1.40;;;;;;;33.78;30.85;101671.55;1582963;89;21608;-74
2021/07/08 11:42:51;;;;;;;1.87;1.40;;;;;;;33.66;30.62;101667.91;1583145;90;21092;-74
2021/07/08 11:45:26;;;;;;;5.58;1.57;;;;;;;33.53;30.30;101662.44;1582956;89;21600;-75